Time;durP1;ratioP1;P1;durP2;ratioP2;P2;SDS_P1;SDS_P2;PMS_P1;PMS_P2;Temp;Humidity;BMP_temperature;BMP_pressure;BME280_temperature;BME280_humidity;BME280_pressure;Samples;Min_cycle;Max_cycle;Signal;HPM_P1;HPM_P2
2022/07/17 00:01:03;;;;;;;8.80;4.22;;;26.80;99.90;;;;;;4990854;28;20026;-71
2022/07/17 00:03:29;;;;;;;6.47;4.13;;;26.80;99.90;;;;;;4990048;28;20445;-72
2022/07/17 00:05:54;;;;;;;9.23;3.85;;;26.70;99.90;;;;;;4990946;28;20026;-72
2022/07/17 00:08:20;;;;;;;6.00;4.60;;;26.70;99.90;;;;;;4991488;28;20033;-72
2022/07/17 00:10:46;;;;;;;12.00;4.57;;;26.70;99.90;;;;;;4993154;28;20030;-72
2022/07/17 00:13:12;;;;;;;9.10;4.18;;;26.70;99.90;;;;;;4995603;28;20041;-72
2022/07/17 00:15:37;;;;;;;7.20;4.30;;;26.60;99.90;;;;;;4994405;28;20513;-72
2022/07/17 00:18:04;;;;;;;5.47;4.15;;;26.60;99.90;;;;;;4995057;28;20113;-72
2022/07/17 00:20:30;;;;;;;5.53;4.38;;;26.50;99.90;;;;;;4993276;28;20030;-73
2022/07/17 00:22:55;;;;;;;21.15;5.13;;;26.50;99.90;;;;;;4995063;28;20193;-72
2022/07/17 00:25:22;;;;;;;6.05;4.60;;;26.50;99.90;;;;;;4992966;28;20489;-72
2022/07/17 00:27:48;;;;;;;9.68;4.32;;;26.40;99.90;;;;;;4994976;28;20019;-72
2022/07/17 00:30:14;;;;;;;5.72;4.10;;;26.40;99.90;;;;;;4993922;28;20525;-72
2022/07/17 00:32:40;;;;;;;8.30;4.45;;;26.30;99.90;;;;;;4994776;28;20033;-72
2022/07/17 00:35:07;;;;;;;4.97;4.35;;;26.30;99.90;;;;;;4992890;28;20030;-72
2022/07/17 00:37:38;;;;;;;4.72;3.80;;;26.30;99.90;;;;;;4993559;28;20077;-72
2022/07/17 00:40:05;;;;;;;7.72;5.22;;;26.20;99.90;;;;;;4993971;28;20037;-72
2022/07/17 00:42:30;;;;;;;5.93;4.68;;;26.30;99.90;;;;;;4997215;28;20034;-72
2022/07/17 00:44:56;;;;;;;9.60;4.47;;;26.20;99.90;;;;;;4994057;28;20029;-72
2022/07/17 00:47:22;;;;;;;10.18;4.32;;;26.20;99.90;;;;;;4994844;28;20125;-72
2022/07/17 00:49:48;;;;;;;14.15;4.75;;;26.10;99.90;;;;;;4992929;28;20466;-72
2022/07/17 00:52:16;;;;;;;7.53;4.45;;;26.10;99.90;;;;;;4993077;28;20108;-72
2022/07/17 00:54:44;;;;;;;9.07;4.80;;;26.00;99.90;;;;;;4994142;28;20073;-72
2022/07/17 00:57:12;;;;;;;6.63;4.30;;;25.90;99.90;;;;;;4993901;28;20026;-72
2022/07/17 00:59:39;;;;;;;8.73;4.43;;;25.90;99.90;;;;;;4993987;28;20035;-72
2022/07/17 01:02:11;;;;;;;22.20;4.82;;;25.80;99.90;;;;;;4993945;28;20057;-72
2022/07/17 01:04:37;;;;;;;6.45;4.78;;;25.70;99.90;;;;;;4992599;28;20050;-72
2022/07/17 01:07:05;;;;;;;8.07;4.43;;;25.60;99.90;;;;;;4993774;28;20117;-72
2022/07/17 01:09:32;;;;;;;12.40;5.00;;;25.60;99.90;;;;;;4993766;28;20034;-72
2022/07/17 01:11:58;;;;;;;15.85;4.88;;;25.50;99.90;;;;;;4996112;28;20029;-72
2022/07/17 01:14:25;;;;;;;9.35;4.72;;;25.50;99.90;;;;;;4993815;28;20061;-71
2022/07/17 01:16:51;;;;;;;8.52;4.30;;;25.50;99.90;;;;;;4993779;28;20069;-72
2022/07/17 01:19:18;;;;;;;8.38;4.78;;;25.50;99.90;;;;;;4992156;28;20031;-72
2022/07/17 01:21:47;;;;;;;12.00;4.95;;;25.50;99.90;;;;;;4993721;28;20560;-72
2022/07/17 01:24:14;;;;;;;8.40;4.70;;;25.50;99.90;;;;;;4991535;28;20034;-72
2022/07/17 01:26:45;;;;;;;6.90;4.30;;;25.50;99.90;;;;;;4989373;28;20049;-72
2022/07/17 01:29:11;;;;;;;10.43;4.00;;;25.50;99.90;;;;;;4993623;28;20436;-73
2022/07/17 01:31:39;;;;;;;6.18;4.20;;;25.50;99.90;;;;;;4993054;28;20084;-72
2022/07/17 01:34:09;;;;;;;6.20;4.38;;;25.60;99.90;;;;;;4991419;28;20073;-72
2022/07/17 01:36:36;;;;;;;6.00;4.38;;;25.60;99.90;;;;;;4993377;28;20030;-72
2022/07/17 01:39:02;;;;;;;10.90;4.57;;;25.50;99.90;;;;;;4993294;28;20030;-72
2022/07/17 01:41:28;;;;;;;7.32;4.63;;;25.50;99.90;;;;;;4995585;28;20030;-72
2022/07/17 01:43:54;;;;;;;9.80;4.63;;;25.50;99.90;;;;;;4993301;28;20037;-72
2022/07/17 01:46:20;;;;;;;6.68;4.55;;;25.50;99.90;;;;;;4991487;28;20094;-72
2022/07/17 01:48:45;;;;;;;9.35;4.25;;;25.50;99.90;;;;;;4993220;28;20030;-72
2022/07/17 01:51:11;;;;;;;6.30;4.53;;;25.40;99.90;;;;;;4991815;28;20022;-72
2022/07/17 01:53:37;;;;;;;5.53;4.40;;;25.40;99.90;;;;;;4992243;28;20026;-72
2022/07/17 01:56:03;;;;;;;4.40;4.00;;;25.40;99.90;;;;;;4992284;28;20104;-72
2022/07/17 01:58:28;;;;;;;6.20;4.05;;;25.30;99.90;;;;;;4993572;28;20026;-72
2022/07/17 02:00:54;;;;;;;5.40;4.35;;;25.40;99.90;;;;;;4991235;28;20022;-72
2022/07/17 02:03:21;;;;;;;7.82;4.38;;;25.40;99.90;;;;;;4991840;28;20408;-71
2022/07/17 02:05:47;;;;;;;5.20;4.05;;;25.40;99.90;;;;;;4992376;28;20033;-71
2022/07/17 02:08:13;;;;;;;12.05;3.65;;;25.30;99.90;;;;;;4993105;28;20493;-71
2022/07/17 02:10:39;;;;;;;4.45;3.90;;;25.30;99.90;;;;;;4993351;28;20061;-72
2022/07/17 02:13:04;;;;;;;5.45;4.13;;;25.30;99.90;;;;;;4994434;28;20023;-73
2022/07/17 02:15:30;;;;;;;8.02;4.03;;;25.20;99.90;;;;;;4992128;28;20057;-73
2022/07/17 02:17:57;;;;;;;5.97;3.92;;;25.10;99.90;;;;;;4992770;28;20068;-72
2022/07/17 02:20:22;;;;;;;4.75;4.00;;;25.10;99.90;;;;;;4990994;28;20044;-73
2022/07/17 02:22:49;;;;;;;8.38;4.30;;;25.00;99.90;;;;;;4991327;28;20499;-73
2022/07/17 02:25:15;;;;;;;5.22;4.03;;;25.00;99.90;;;;;;4992049;28;20034;-73
2022/07/17 02:27:42;;;;;;;6.65;4.10;;;25.00;99.90;;;;;;4992677;28;20073;-73
2022/07/17 02:30:10;;;;;;;8.77;3.65;;;24.90;99.90;;;;;;4992422;28;20498;-73
2022/07/17 02:32:36;;;;;;;6.60;4.45;;;24.90;99.90;;;;;;4989485;28;20109;-73
2022/07/17 02:35:03;;;;;;;5.47;4.07;;;24.90;99.90;;;;;;4991606;28;20525;-73
2022/07/17 02:37:29;;;;;;;7.03;4.40;;;24.90;99.90;;;;;;4992542;28;20038;-73
2022/07/17 02:39:54;;;;;;;4.85;3.70;;;24.80;99.90;;;;;;4990763;28;20034;-73
2022/07/17 02:42:26;;;;;;;6.15;3.97;;;24.80;99.90;;;;;;5009697;28;20026;-73
2022/07/17 02:44:53;;;;;;;4.30;3.50;;;24.80;99.90;;;;;;4990778;28;20425;-73
2022/07/17 02:47:44;;;;;;;6.45;3.90;;;24.70;99.90;;;;;;4992517;28;20026;-73
2022/07/17 02:50:10;;;;;;;5.30;4.07;;;24.70;99.90;;;;;;4991434;28;20462;-73
2022/07/17 02:52:36;;;;;;;6.63;3.97;;;24.70;99.90;;;;;;4991203;28;20089;-74
2022/07/17 02:55:02;;;;;;;8.48;3.72;;;24.70;99.90;;;;;;4991539;28;20088;-73
2022/07/17 02:57:28;;;;;;;8.15;3.70;;;24.70;99.90;;;;;;4990624;28;20632;-73
2022/07/17 02:59:54;;;;;;;8.90;4.07;;;24.70;99.90;;;;;;4991751;28;20033;-74
2022/07/17 03:02:19;;;;;;;9.63;3.80;;;24.70;99.90;;;;;;4991726;28;20508;-73
2022/07/17 03:04:45;;;;;;;6.60;3.78;;;24.60;99.90;;;;;;4991519;28;20312;-73
2022/07/17 03:07:11;;;;;;;7.35;3.53;;;24.60;99.90;;;;;;4991839;28;20026;-73
2022/07/17 03:09:37;;;;;;;4.72;3.22;;;24.60;99.90;;;;;;4991761;28;20030;-74
2022/07/17 03:12:03;;;;;;;6.93;3.78;;;24.60;99.90;;;;;;4994104;28;20120;-73
2022/07/17 03:14:28;;;;;;;5.47;3.60;;;24.60;99.90;;;;;;4991979;28;20034;-74
2022/07/17 03:16:54;;;;;;;5.95;4.05;;;24.60;99.90;;;;;;4990093;28;20022;-73
2022/07/17 03:19:20;;;;;;;7.18;3.30;;;24.60;99.90;;;;;;4991871;28;20050;-74
2022/07/17 03:21:45;;;;;;;4.97;3.28;;;24.60;99.90;;;;;;4991066;28;20026;-73
2022/07/17 03:24:11;;;;;;;5.32;3.20;;;24.60;99.90;;;;;;4991720;28;20029;-74
2022/07/17 03:26:37;;;;;;;4.43;3.30;;;24.50;99.90;;;;;;4991358;28;20014;-74
2022/07/17 03:29:03;;;;;;;4.80;3.65;;;24.50;99.90;;;;;;4991680;28;20081;-73
2022/07/17 03:31:28;;;;;;;16.75;3.42;;;24.50;99.90;;;;;;4991096;28;20057;-73
2022/07/17 03:33:54;;;;;;;6.07;3.22;;;24.50;99.90;;;;;;4991629;28;20559;-73
2022/07/17 03:36:20;;;;;;;4.85;3.88;;;24.50;99.90;;;;;;4991334;28;20066;-73
2022/07/17 03:38:45;;;;;;;8.50;3.40;;;24.60;99.90;;;;;;4990107;28;20030;-73
2022/07/17 03:41:11;;;;;;;18.90;3.20;;;24.50;99.90;;;;;;4991667;28;20157;-73
2022/07/17 03:43:37;;;;;;;6.82;3.55;;;24.60;99.90;;;;;;4991178;28;20019;-73
2022/07/17 03:46:03;;;;;;;4.72;3.30;;;24.60;99.60;;;;;;4990725;28;20516;-73
2022/07/17 03:48:29;;;;;;;12.02;2.92;;;24.50;99.30;;;;;;4996017;28;20046;-73
2022/07/17 03:50:54;;;;;;;7.18;2.85;;;24.60;99.10;;;;;;4994962;28;20109;-73
2022/07/17 03:53:20;;;;;;;5.05;2.70;;;24.60;98.90;;;;;;4995669;28;20045;-74
2022/07/17 03:55:46;;;;;;;5.63;3.13;;;24.60;98.70;;;;;;4993675;28;20038;-74
2022/07/17 03:58:11;;;;;;;3.17;2.60;;;24.60;98.50;;;;;;4994097;28;20033;-73
2022/07/17 04:00:37;;;;;;;5.57;3.10;;;24.60;98.30;;;;;;4994785;28;20027;-73
2022/07/17 04:03:03;;;;;;;4.47;3.05;;;24.60;98.00;;;;;;4994190;28;20045;-74
2022/07/17 04:05:28;;;;;;;4.25;2.70;;;24.70;97.90;;;;;;4994571;28;20568;-73
2022/07/17 04:07:54;;;;;;;5.15;3.15;;;24.60;97.70;;;;;;4994330;28;20027;-73
2022/07/17 04:10:20;;;;;;;3.80;3.10;;;24.70;97.60;;;;;;4993540;28;20080;-73
2022/07/17 04:12:45;;;;;;;3.95;2.88;;;24.70;97.60;;;;;;4997673;28;20046;-73
2022/07/17 04:15:11;;;;;;;4.82;3.03;;;24.70;97.40;;;;;;4994475;28;20046;-72
2022/07/17 04:17:37;;;;;;;4.85;3.00;;;24.70;97.40;;;;;;4995154;28;20026;-73
2022/07/17 04:20:03;;;;;;;8.05;2.80;;;24.70;97.40;;;;;;4993194;28;20081;-74
2022/07/17 04:22:29;;;;;;;6.22;3.05;;;24.70;97.30;;;;;;4995059;28;20547;-74
2022/07/17 04:24:55;;;;;;;8.35;2.90;;;24.70;97.30;;;;;;4994416;28;20042;-74
2022/07/17 04:27:20;;;;;;;6.50;3.35;;;24.70;97.30;;;;;;4994843;28;20166;-75
2022/07/17 04:29:46;;;;;;;3.40;2.72;;;24.80;97.10;;;;;;4994860;28;20034;-74
2022/07/17 04:32:12;;;;;;;5.15;2.65;;;24.80;97.00;;;;;;4994453;28;20015;-74
2022/07/17 04:34:38;;;;;;;6.38;3.03;;;24.80;97.00;;;;;;4994514;28;20030;-73
2022/07/17 04:37:04;;;;;;;3.42;2.80;;;24.80;96.80;;;;;;4993200;28;20033;-73
2022/07/17 04:39:30;;;;;;;3.67;2.78;;;24.80;96.70;;;;;;4994581;28;20022;-74
2022/07/17 04:41:56;;;;;;;3.42;2.72;;;24.80;96.70;;;;;;4995521;28;20485;-74
2022/07/17 04:44:22;;;;;;;4.90;2.58;;;24.90;96.60;;;;;;4994630;28;20394;-74
2022/07/17 04:46:48;;;;;;;6.75;3.00;;;24.90;96.50;;;;;;4992970;28;20037;-74
2022/07/17 04:49:14;;;;;;;13.55;3.08;;;24.90;96.40;;;;;;4994642;28;20049;-73
2022/07/17 04:51:40;;;;;;;3.47;2.63;;;24.90;96.30;;;;;;4994379;28;20049;-74
2022/07/17 04:54:05;;;;;;;4.85;2.50;;;24.90;96.30;;;;;;4992813;28;20034;-75
2022/07/17 04:56:31;;;;;;;5.15;2.90;;;24.90;96.10;;;;;;4993881;28;20117;-76
2022/07/17 04:58:57;;;;;;;8.25;2.47;;;24.90;96.10;;;;;;4994144;28;20031;-76
2022/07/17 05:01:23;;;;;;;4.00;2.40;;;24.90;96.10;;;;;;4991675;28;20026;-74
2022/07/17 05:03:48;;;;;;;4.80;2.85;;;25.00;96.10;;;;;;4992821;28;20047;-75
2022/07/17 05:06:14;;;;;;;5.82;2.97;;;24.90;95.90;;;;;;4992895;28;20117;-74
2022/07/17 05:08:41;;;;;;;5.35;2.58;;;24.90;95.90;;;;;;4994264;28;20042;-74
2022/07/17 05:11:07;;;;;;;4.60;2.70;;;24.90;95.70;;;;;;4996136;28;20033;-73
2022/07/17 05:13:32;;;;;;;4.18;2.47;;;25.00;95.50;;;;;;4994042;28;20034;-74
2022/07/17 05:15:58;;;;;;;4.10;2.47;;;25.00;95.40;;;;;;4993257;28;20042;-74
2022/07/17 05:18:23;;;;;;;12.32;3.22;;;25.00;95.30;;;;;;4994324;28;20030;-74
2022/07/17 05:20:49;;;;;;;4.95;2.60;;;25.00;95.10;;;;;;4992454;28;20026;-74
2022/07/17 05:23:15;;;;;;;3.92;2.72;;;25.00;95.00;;;;;;4994084;28;20493;-74
2022/07/17 05:25:40;;;;;;;3.40;2.53;;;25.00;94.80;;;;;;4993413;28;20026;-74
2022/07/17 05:28:06;;;;;;;2.58;2.35;;;25.00;94.80;;;;;;4992572;28;20022;-74
2022/07/17 05:30:32;;;;;;;5.93;2.40;;;25.10;94.40;;;;;;4993199;28;20019;-75
2022/07/17 05:32:57;;;;;;;6.28;2.58;;;25.10;94.40;;;;;;4992600;28;20033;-75
2022/07/17 05:35:23;;;;;;;4.65;2.40;;;25.20;94.20;;;;;;4991589;28;20125;-75
2022/07/17 05:37:49;;;;;;;2.88;2.20;;;25.20;93.80;;;;;;4993228;28;20018;-75
2022/07/17 05:40:15;;;;;;;5.45;2.35;;;25.20;93.70;;;;;;4991742;28;20045;-75
2022/07/17 05:42:40;;;;;;;3.67;2.30;;;25.30;93.50;;;;;;4995444;28;20439;-75
2022/07/17 05:45:07;;;;;;;6.90;2.17;;;25.30;93.40;;;;;;4991723;28;20514;-75
2022/07/17 05:47:32;;;;;;;4.60;2.50;;;25.40;93.30;;;;;;4993652;28;20040;-75
2022/07/17 05:49:58;;;;;;;10.57;2.10;;;25.40;93.10;;;;;;4993008;28;20105;-75
2022/07/17 05:52:24;;;;;;;7.28;2.38;;;25.40;93.00;;;;;;4993404;28;20030;-76
2022/07/17 05:54:49;;;;;;;2.08;1.90;;;25.50;92.90;;;;;;4993114;28;20042;-74
2022/07/17 05:57:15;;;;;;;3.13;2.20;;;25.50;92.80;;;;;;4992813;28;20041;-75
2022/07/17 05:59:41;;;;;;;2.70;2.17;;;25.50;92.70;;;;;;4991996;28;20037;-75
2022/07/17 06:02:07;;;;;;;2.53;2.25;;;25.50;92.70;;;;;;4992818;28;20042;-75
2022/07/17 06:04:33;;;;;;;7.35;1.88;;;25.50;92.60;;;;;;4993048;28;20072;-76
2022/07/17 06:06:58;;;;;;;4.55;2.35;;;25.60;92.20;;;;;;4991653;28;20030;-75
2022/07/17 06:09:24;;;;;;;4.82;2.15;;;25.60;92.30;;;;;;4992315;28;20077;-75
2022/07/17 06:11:50;;;;;;;4.35;2.22;;;25.60;92.10;;;;;;4995110;28;20456;-74
2022/07/17 06:14:16;;;;;;;2.33;1.98;;;25.70;92.20;;;;;;4991599;28;20113;-74
2022/07/17 06:16:42;;;;;;;4.55;2.03;;;25.70;92.10;;;;;;4992642;28;20486;-74
2022/07/17 06:19:07;;;;;;;4.80;2.40;;;25.70;92.00;;;;;;4991211;28;20466;-74
2022/07/17 06:21:33;;;;;;;4.95;2.78;;;25.70;92.20;;;;;;4992526;28;20038;-75
2022/07/17 06:23:59;;;;;;;3.85;1.95;;;25.80;91.90;;;;;;4991231;28;20113;-75
2022/07/17 06:26:24;;;;;;;3.20;1.80;;;25.80;91.80;;;;;;4992214;28;20054;-76
2022/07/17 06:28:51;;;;;;;2.72;2.10;;;25.90;91.50;;;;;;4992668;28;20034;-76
2022/07/17 06:31:17;;;;;;;5.47;2.20;;;25.90;91.70;;;;;;4992227;28;20026;-75
2022/07/17 06:33:43;;;;;;;10.80;2.30;;;25.90;91.50;;;;;;4992456;28;20117;-78
2022/07/17 06:36:08;;;;;;;4.78;2.20;;;26.00;91.40;;;;;;4992148;28;20126;-74
2022/07/17 06:38:34;;;;;;;3.40;2.05;;;26.00;91.40;;;;;;4992685;28;20050;-75
2022/07/17 06:41:01;;;;;;;4.55;2.35;;;26.00;91.00;;;;;;4994534;28;20045;-76
2022/07/17 06:43:27;;;;;;;3.45;2.00;;;26.00;91.10;;;;;;4991362;28;20034;-76
2022/07/17 06:45:54;;;;;;;2.78;2.08;;;26.00;91.10;;;;;;4991674;28;20609;-79
2022/07/17 06:48:21;;;;;;;4.28;2.10;;;26.10;91.20;;;;;;4991013;28;20050;-75
2022/07/17 06:50:47;;;;;;;2.78;2.20;;;26.10;91.40;;;;;;4990504;28;20027;-78
2022/07/17 06:53:13;;;;;;;4.72;2.30;;;26.20;92.20;;;;;;4991036;28;20397;-74
2022/07/17 06:55:39;;;;;;;5.65;2.00;;;26.30;91.90;;;;;;4991231;28;20046;-76
2022/07/17 06:58:05;;;;;;;3.03;2.10;;;26.30;91.60;;;;;;4992280;28;20406;-74
2022/07/17 07:00:30;;;;;;;3.88;2.58;;;26.40;91.90;;;;;;4991697;28;20109;-78
2022/07/17 07:02:56;;;;;;;4.22;2.40;;;26.50;92.00;;;;;;4990445;28;20043;-79
2022/07/17 07:05:22;;;;;;;10.10;2.58;;;26.50;91.90;;;;;;4990306;28;20117;-75
2022/07/17 07:07:48;;;;;;;3.35;2.15;;;26.60;91.60;;;;;;4992268;28;20014;-75
2022/07/17 07:10:14;;;;;;;10.07;1.92;;;26.60;91.50;;;;;;4991213;28;20046;-76
2022/07/17 07:12:39;;;;;;;3.63;1.98;;;26.70;91.30;;;;;;4994607;28;20022;-76
2022/07/17 07:15:06;;;;;;;4.32;1.90;;;26.70;91.20;;;;;;4991327;28;20495;-75
2022/07/17 07:17:34;;;;;;;2.47;1.73;;;26.80;90.70;;;;;;4991803;28;20026;-75
2022/07/17 07:20:04;;;;;;;5.15;1.92;;;26.80;90.80;;;;;;4991307;28;20033;-75
2022/07/17 07:22:30;;;;;;;3.60;1.80;;;26.80;90.80;;;;;;4990668;28;20027;-75
2022/07/17 07:24:56;;;;;;;3.30;1.95;;;26.90;90.20;;;;;;4991077;28;20026;-76
2022/07/17 07:27:22;;;;;;;3.67;2.28;;;26.90;90.50;;;;;;4991717;28;20452;-75
2022/07/17 07:29:47;;;;;;;4.57;2.08;;;27.00;90.30;;;;;;4991750;28;20030;-75
2022/07/17 07:32:13;;;;;;;5.35;2.08;;;27.10;90.30;;;;;;4991243;28;20030;-78
2022/07/17 07:34:39;;;;;;;3.17;2.35;;;27.10;90.30;;;;;;4991251;28;20043;-75
2022/07/17 07:37:05;;;;;;;2.50;1.80;;;27.20;90.20;;;;;;4990325;28;20109;-75
2022/07/17 07:39:31;;;;;;;6.07;2.10;;;27.20;90.10;;;;;;4979586;28;20102;-76
2022/07/17 07:41:56;;;;;;;5.13;2.15;;;27.20;89.90;;;;;;4993651;28;20482;-77
2022/07/17 07:44:22;;;;;;;11.40;2.22;;;27.30;89.40;;;;;;4991410;28;20496;-76
2022/07/17 07:46:48;;;;;;;3.28;1.90;;;27.30;89.60;;;;;;4991044;28;20030;-75
2022/07/17 07:49:15;;;;;;;3.55;1.77;;;27.30;89.60;;;;;;4991126;28;20031;-74
2022/07/17 07:51:41;;;;;;;4.47;1.98;;;27.40;89.20;;;;;;4991424;28;20081;-75
2022/07/17 07:54:07;;;;;;;4.38;2.05;;;27.40;89.50;;;;;;4991179;28;20038;-76
2022/07/17 07:56:33;;;;;;;3.08;2.00;;;27.40;89.50;;;;;;4989703;28;20038;-76
2022/07/17 07:58:59;;;;;;;3.53;2.08;;;27.50;89.10;;;;;;4991304;28;20122;-76
2022/07/17 08:01:25;;;;;;;5.63;2.05;;;27.50;88.90;;;;;;4991162;28;20031;-77
2022/07/17 08:03:50;;;;;;;2.05;1.70;;;27.50;88.50;;;;;;4991047;28;20042;-75
2022/07/17 08:06:16;;;;;;;3.03;2.35;;;27.60;88.10;;;;;;4991141;28;20041;-76
2022/07/17 08:08:42;;;;;;;3.03;1.85;;;27.60;88.20;;;;;;4991163;28;20037;-76
2022/07/17 08:11:08;;;;;;;6.82;2.47;;;27.70;88.10;;;;;;4993526;28;20022;-77
2022/07/17 08:13:33;;;;;;;3.70;1.92;;;27.70;87.70;;;;;;4990361;28;20077;-76
2022/07/17 08:15:59;;;;;;;2.88;2.03;;;27.70;87.30;;;;;;4990489;28;20065;-76
2022/07/17 08:18:26;;;;;;;7.97;2.03;;;27.80;87.00;;;;;;4990177;28;20512;-76
2022/07/17 08:20:52;;;;;;;2.67;2.05;;;27.80;87.00;;;;;;4989365;28;20030;-74
2022/07/17 08:23:19;;;;;;;4.45;2.05;;;27.90;86.60;;;;;;4991191;28;20023;-74
2022/07/17 08:25:47;;;;;;;2.97;2.17;;;27.90;86.70;;;;;;4990516;28;20494;-76
2022/07/17 08:28:13;;;;;;;2.70;1.70;;;28.00;86.30;;;;;;4991204;28;20080;-76
2022/07/17 08:30:39;;;;;;;8.63;2.10;;;28.00;85.80;;;;;;4989188;28;20030;-76
2022/07/17 08:33:07;;;;;;;7.55;2.00;;;28.00;85.90;;;;;;4993019;28;20102;-76
2022/07/17 08:35:33;;;;;;;3.10;2.08;;;28.10;85.60;;;;;;4993935;28;20039;-76
2022/07/17 08:38:02;;;;;;;5.75;2.10;;;28.10;85.20;;;;;;4995014;28;20030;-76
2022/07/17 08:40:30;;;;;;;2.72;1.83;;;28.20;86.20;;;;;;4994186;28;20022;-75
2022/07/17 08:42:57;;;;;;;3.72;1.92;;;28.20;85.30;;;;;;4993785;28;20022;-77
2022/07/17 08:45:23;;;;;;;3.30;1.98;;;28.20;85.10;;;;;;4994039;28;20445;-76
2022/07/17 08:47:55;;;;;;;3.05;2.08;;;28.30;84.90;;;;;;4995057;28;20026;-76
2022/07/17 08:50:26;;;;;;;6.47;1.77;;;28.30;84.60;;;;;;4994174;28;20366;-77
2022/07/17 08:52:53;;;;;;;2.95;1.80;;;28.40;84.50;;;;;;4993586;28;20488;-78
2022/07/17 08:55:18;;;;;;;5.75;2.17;;;28.40;84.40;;;;;;4993881;28;20034;-76
2022/07/17 08:57:45;;;;;;;4.50;2.30;;;28.50;84.50;;;;;;4994361;28;20026;-75
2022/07/17 09:00:16;;;;;;;2.40;2.10;;;28.50;84.30;;;;;;4993888;28;20037;-76
2022/07/17 09:03:00;;;;;;;5.25;1.90;;;28.50;84.10;;;;;;4992908;28;20132;-76
2022/07/17 09:05:29;;;;;;;3.75;2.38;;;28.50;84.10;;;;;;4992403;28;20042;-77
2022/07/17 09:07:55;;;;;;;4.70;2.00;;;28.60;84.40;;;;;;4992928;28;20362;-73
2022/07/17 09:10:42;;;;;;;4.78;2.35;;;28.70;83.40;;;;;;4993446;28;20064;-78
2022/07/17 09:13:30;;;;;;;2.25;1.98;;;28.70;83.40;;;;;;4992913;28;20034;-78
2022/07/17 09:16:05;;;;;;;3.50;2.25;;;28.70;83.10;;;;;;4991776;28;20042;-75
2022/07/17 09:18:31;;;;;;;8.65;2.17;;;28.80;82.50;;;;;;4986026;28;20101;-75
2022/07/17 09:20:57;;;;;;;6.25;2.00;;;28.80;82.40;;;;;;4992129;28;20632;-78
2022/07/17 09:23:25;;;;;;;3.50;2.03;;;28.80;82.50;;;;;;4984557;28;20446;-75
2022/07/17 09:25:54;;;;;;;4.07;2.13;;;28.90;82.40;;;;;;4992097;28;20065;-73
2022/07/17 09:28:20;;;;;;;3.95;2.22;;;28.90;82.50;;;;;;4993755;28;20022;-77
2022/07/17 09:30:49;;;;;;;2.90;2.28;;;29.00;82.60;;;;;;4991997;28;20042;-76
2022/07/17 09:33:17;;;;;;;2.42;2.22;;;29.10;82.60;;;;;;4992793;28;20046;-74
2022/07/17 09:36:12;;;;;;;3.50;2.20;;;29.30;82.20;;;;;;4993072;28;20513;-75
2022/07/17 09:38:40;;;;;;;2.65;2.10;;;29.40;81.10;;;;;;4993857;28;20076;-76
2022/07/17 09:41:09;;;;;;;6.32;2.20;;;29.40;80.60;;;;;;4995354;28;20127;-77
2022/07/17 09:43:46;;;;;;;4.25;2.47;;;29.50;80.80;;;;;;4991436;28;20385;-80
2022/07/17 09:46:23;;;;;;;3.78;2.60;;;29.50;80.50;;;;;;4992366;28;20058;-77
2022/07/17 09:49:00;;;;;;;4.15;2.60;;;29.60;80.80;;;;;;4993248;28;20030;-77
2022/07/17 09:51:39;;;;;;;3.55;2.35;;;29.60;80.10;;;;;;4991737;28;20050;-77
2022/07/17 09:54:07;;;;;;;2.80;2.33;;;29.70;79.70;;;;;;4993131;28;20513;-78
2022/07/17 09:56:35;;;;;;;6.10;2.50;;;29.70;80.30;;;;;;4991765;28;20073;-78
2022/07/17 09:59:07;;;;;;;6.10;2.50;;;29.90;79.80;;;;;;4992815;28;20498;-78
2022/07/17 10:01:35;;;;;;;3.92;2.33;;;29.90;79.30;;;;;;4991748;28;20038;-77
2022/07/17 10:04:01;;;;;;;3.13;2.30;;;30.00;79.40;;;;;;4992868;28;20064;-77
2022/07/17 10:06:27;;;;;;;3.88;2.10;;;30.10;79.50;;;;;;4991594;28;20437;-76
2022/07/17 10:08:54;;;;;;;5.35;2.10;;;30.20;78.90;;;;;;4993059;28;20437;-77
2022/07/17 10:11:25;;;;;;;1.70;1.60;;;30.20;78.90;;;;;;4994019;28;20030;-77
2022/07/17 10:13:53;;;;;;;2.20;1.80;;;30.20;78.50;;;;;;4992820;28;20026;-78
2022/07/17 10:16:27;;;;;;;4.80;2.28;;;30.20;78.00;;;;;;4992396;28;20045;-76
2022/07/17 10:18:55;;;;;;;2.75;2.05;;;30.30;77.90;;;;;;4991402;28;20763;-75
2022/07/17 10:21:22;;;;;;;2.55;2.20;;;30.40;78.20;;;;;;4991288;28;20030;-72
2022/07/17 10:23:53;;;;;;;5.30;2.47;;;30.40;77.90;;;;;;4991340;28;20393;-73
2022/07/17 10:26:31;;;;;;;3.15;2.60;;;30.50;78.00;;;;;;4991995;28;20033;-73
2022/07/17 10:28:57;;;;;;;5.55;1.95;;;30.50;77.90;;;;;;4992408;28;20031;-75
2022/07/17 10:31:29;;;;;;;2.70;2.10;;;30.70;78.10;;;;;;4990195;28;20520;-75
2022/07/17 10:33:59;;;;;;;3.90;2.50;;;30.80;78.20;;;;;;4990997;28;20034;-74
2022/07/17 10:36:39;;;;;;;3.85;2.00;;;30.80;77.40;;;;;;4990334;28;20042;-76
2022/07/17 10:39:15;;;;;;;6.03;2.25;;;30.90;77.00;;;;;;4992608;28;20496;-79
2022/07/17 10:41:41;;;;;;;3.03;1.90;;;30.90;77.40;;;;;;4989538;28;20034;-75
2022/07/17 10:44:08;;;;;;;6.20;2.28;;;30.90;77.40;;;;;;4991117;28;20385;-79
2022/07/17 10:46:34;;;;;;;4.15;2.35;;;31.00;77.70;;;;;;4992052;28;20033;-77
2022/07/17 10:49:03;;;;;;;3.50;2.13;;;31.10;77.10;;;;;;4991118;28;20026;-77
2022/07/17 10:51:30;;;;;;;7.40;3.45;;;31.20;77.20;;;;;;4990810;28;20058;-76
2022/07/17 10:53:58;;;;;;;3.70;2.90;;;31.30;77.20;;;;;;4992309;28;20033;-76
2022/07/17 10:56:25;;;;;;;3.70;2.63;;;31.40;77.20;;;;;;4989714;28;20049;-76
2022/07/17 10:58:52;;;;;;;2.90;2.38;;;31.50;76.60;;;;;;4991870;28;20030;-77
2022/07/17 11:01:18;;;;;;;3.65;3.05;;;31.60;76.30;;;;;;4991808;28;20116;-76
2022/07/17 11:03:47;;;;;;;8.75;6.65;;;31.70;76.40;;;;;;4990566;28;20132;-77
2022/07/17 11:06:27;;;;;;;8.45;5.60;;;31.80;76.40;;;;;;4991296;28;20402;-80
2022/07/17 11:09:02;;;;;;;3.78;2.72;;;31.90;76.60;;;;;;4991780;28;20033;-77
2022/07/17 11:11:50;;;;;;;3.88;3.00;;;32.00;76.40;;;;;;4992745;28;20509;-76
2022/07/17 11:14:20;;;;;;;2.17;1.98;;;32.10;76.20;;;;;;4990408;28;20057;-77
2022/07/17 11:16:51;;;;;;;2.50;2.05;;;32.10;75.60;;;;;;4991526;28;20042;-77
2022/07/17 11:19:22;;;;;;;4.03;2.20;;;32.20;75.60;;;;;;4991641;28;20117;-76
2022/07/17 11:21:49;;;;;;;3.55;2.40;;;32.30;75.70;;;;;;4987844;28;20481;-76
2022/07/17 11:24:15;;;;;;;4.43;2.80;;;32.30;75.90;;;;;;4990903;28;20030;-76
2022/07/17 11:26:43;;;;;;;2.88;2.42;;;32.50;75.30;;;;;;4988599;28;20038;-76
2022/07/17 11:29:09;;;;;;;2.67;2.40;;;32.60;75.60;;;;;;4990130;28;20034;-76
2022/07/17 11:31:35;;;;;;;2.40;2.00;;;32.70;74.60;;;;;;4991402;28;20030;-76
2022/07/17 11:34:08;;;;;;;5.65;2.60;;;32.80;74.60;;;;;;4991493;28;20037;-77
2022/07/17 11:36:43;;;;;;;2.70;2.50;;;32.90;74.50;;;;;;4990006;28;20120;-76
2022/07/17 11:39:12;;;;;;;6.65;2.40;;;32.90;74.40;;;;;;4991293;28;20030;-74
2022/07/17 11:41:40;;;;;;;2.53;2.20;;;33.00;74.30;;;;;;4993486;28;20113;-73
2022/07/17 11:44:09;;;;;;;3.60;2.08;;;33.00;74.60;;;;;;4987520;28;20023;-75
2022/07/17 11:46:37;;;;;;;2.35;2.10;;;33.10;74.20;;;;;;4987263;28;20037;-78
2022/07/17 11:49:03;;;;;;;3.10;1.83;;;33.20;74.10;;;;;;4986721;28;20124;-75
2022/07/17 11:51:44;;;;;;;5.68;1.98;;;33.20;74.10;;;;;;4987591;28;20097;-77
2022/07/17 11:54:15;;;;;;;3.20;2.20;;;33.20;74.50;;;;;;4987827;28;20018;-76
2022/07/17 11:56:42;;;;;;;4.20;2.38;;;33.30;73.80;;;;;;4983043;28;20041;-77
2022/07/17 11:59:09;;;;;;;9.85;2.42;;;33.40;73.90;;;;;;4987714;28;20026;-77
2022/07/17 12:01:40;;;;;;;4.22;2.70;;;33.40;73.30;;;;;;4987780;28;20035;-76
2022/07/17 12:04:08;;;;;;;7.30;2.88;;;33.50;73.50;;;;;;4987620;28;20048;-76
2022/07/17 12:06:34;;;;;;;6.93;2.20;;;33.60;73.90;;;;;;4987697;28;20027;-76
2022/07/17 12:08:59;;;;;;;3.33;2.03;;;33.80;73.50;;;;;;4990808;28;20038;-75
2022/07/17 12:11:25;;;;;;;4.72;2.38;;;34.60;72.40;;;;;;4992853;28;20096;-75
2022/07/17 12:13:51;;;;;;;4.10;2.10;;;36.10;70.50;;;;;;4991344;28;20497;-74
2022/07/17 12:16:24;;;;;;;1.85;1.73;;;38.10;67.70;;;;;;4991413;28;20572;-73
2022/07/17 12:19:00;;;;;;;2.22;1.67;;;40.30;64.90;;;;;;4990222;28;20037;-74
2022/07/17 12:21:26;;;;;;;2.72;1.88;;;42.30;60.80;;;;;;4989187;28;20448;-76
2022/07/17 12:24:03;;;;;;;4.32;1.85;;;43.90;59.40;;;;;;4991473;28;20026;-75
2022/07/17 12:26:30;;;;;;;1.77;1.67;;;45.80;56.20;;;;;;4990086;28;20042;-76
2022/07/17 12:28:56;;;;;;;3.58;2.00;;;47.00;54.50;;;;;;4991129;28;20030;-76
2022/07/17 12:31:23;;;;;;;10.90;1.90;;;47.90;52.30;;;;;;4989770;28;20026;-75
2022/07/17 12:33:51;;;;;;;3.67;1.80;;;48.80;51.00;;;;;;4991448;28;20038;-76
2022/07/17 12:36:17;;;;;;;3.22;1.90;;;49.60;49.40;;;;;;4988464;28;20043;-76
2022/07/17 12:38:43;;;;;;;2.72;1.83;;;50.10;48.50;;;;;;4991265;28;20023;-76
2022/07/17 12:41:09;;;;;;;3.90;2.03;;;50.70;47.80;;;;;;4991801;28;20489;-76
2022/07/17 12:43:35;;;;;;;2.80;1.75;;;51.30;46.70;;;;;;4991139;28;20497;-75
2022/07/17 12:46:01;;;;;;;3.53;2.10;;;51.70;46.50;;;;;;4990686;28;20034;-75